Time;durP1;ratioP1;P1;durP2;ratioP2;P2;SDS_P1;SDS_P2;PMS_P1;PMS_P2;Temp;Humidity;BMP_temperature;BMP_pressure;BME280_temperature;BME280_humidity;BME280_pressure;Samples;Min_cycle;Max_cycle;Signal;HPM_P1;HPM_P2
2022/04/05 00:01:14;;;;;;;;;;;;;;;5.09;59.46;99225.00;4439127;32;26551;-89
2022/04/05 00:03:39;;;;;;;;;;;;;;;4.89;59.45;99209.88;4438112;32;19985;-89
2022/04/05 00:06:04;;;;;;;;;;;;;;;4.85;59.45;99210.81;4434587;32;19978;-89
2022/04/05 00:08:30;;;;;;;;;;;;;;;4.94;59.46;99202.06;4450778;32;20042;-88
2022/04/05 00:10:55;;;;;;;;;;;;;;;4.98;59.46;99205.44;4433233;32;20032;-88
2022/04/05 00:13:20;;;;;;;;;;;;;;;4.76;59.45;99207.56;4438248;32;20393;-88
2022/04/05 00:15:45;;;;;;;;;;;;;;;4.56;59.43;99201.00;4398132;32;20033;-89
2022/04/05 00:18:11;;;;;;;;;;;;;;;4.69;59.44;99198.19;4432541;32;19997;-89
2022/04/05 00:20:36;;;;;;;;;;;;;;;4.65;59.44;99192.25;4435449;32;20035;-88
2022/04/05 00:23:01;;;;;;;;;;;;;;;4.65;59.44;99197.41;4431561;32;19990;-87
2022/04/05 00:25:27;;;;;;;;;;;;;;;4.73;59.45;99197.28;4435527;32;20037;-88
2022/04/05 00:27:52;;;;;;;;;;;;;;;4.59;59.44;99194.94;4430602;32;20263;-88
2022/04/05 00:30:18;;;;;;;;;;;;;;;4.66;59.44;99188.81;4435481;32;20783;-88
2022/04/05 00:32:43;;;;;;;;;;;;;;;4.67;59.44;99190.50;4429630;32;20002;-89
2022/04/05 00:35:08;;;;;;;;;;;;;;;4.59;59.44;99190.63;4435245;32;20251;-87
2022/04/05 00:37:34;;;;;;;;;;;;;;;4.58;59.44;99188.94;4424058;32;19996;-87
2022/04/05 00:39:59;;;;;;;;;;;;;;;4.64;59.44;99180.25;4423932;32;20067;-86
2022/04/05 00:42:25;;;;;;;;;;;;;;;4.62;59.44;99182.84;4433638;32;20009;-87
2022/04/05 00:44:50;;;;;;;;;;;;;;;4.64;59.45;99172.50;4429833;32;20019;-87
2022/04/05 00:47:20;;;;;;;;;;;;;;;4.65;59.44;99174.22;4435474;32;19997;-87
2022/04/05 00:49:46;;;;;;;;;;;;;;;4.59;59.44;99172.59;4435544;32;20000;-88
2022/04/05 00:52:12;;;;;;;;;;;;;;;4.53;59.43;99175.28;4435340;32;19994;-88
2022/04/05 00:54:38;;;;;;;;;;;;;;;4.69;59.44;99170.69;4435365;32;20052;-87
2022/04/05 00:57:03;;;;;;;;;;;;;;;4.70;59.44;99171.53;4431528;32;19989;-88
2022/04/05 00:59:30;;;;;;;;;;;;;;;4.73;59.45;99162.06;4435403;32;20031;-87
2022/04/05 01:01:56;;;;;;;;;;;;;;;4.94;59.46;99155.63;4424056;32;20046;-87
2022/04/05 01:04:21;;;;;;;;;;;;;;;4.92;59.45;99158.25;4423952;32;19982;-87
2022/04/05 01:06:47;;;;;;;;;;;;;;;4.96;59.46;99164.19;4424024;32;20043;-87
2022/04/05 01:09:12;;;;;;;;;;;;;;;4.88;59.46;99153.16;4432404;32;19977;-87
2022/04/05 01:11:37;;;;;;;;;;;;;;;4.98;59.46;99156.44;4435536;32;19990;-88
2022/04/05 01:14:03;;;;;;;;;;;;;;;4.93;59.45;99159.09;4430593;32;27747;-87
2022/04/05 01:16:28;;;;;;;;;;;;;;;5.01;59.47;99157.25;4423763;32;19995;-88
2022/04/05 01:18:53;;;;;;;;;;;;;;;4.99;59.46;99158.16;4430196;32;20013;-87
2022/04/05 01:21:19;;;;;;;;;;;;;;;4.77;59.44;99153.38;4434426;32;32285;-88
2022/04/05 01:24:06;;;;;;;;;;;;;;;4.89;59.46;99149.72;4429253;32;19997;-88
2022/04/05 01:26:41;;;;;;;;;;;;;;;4.66;59.44;99155.28;4435165;32;20000;-88
2022/04/05 01:29:06;;;;;;;;;;;;;;;4.98;59.46;99146.13;4431773;32;19993;-87
2022/04/05 01:31:43;;;;;;;;;;;;;;;4.99;59.46;99146.09;4446600;32;20015;-88
2022/04/05 01:34:08;;;;;;;;;;;;;;;4.87;59.46;99151.47;4424264;32;20031;-89
2022/04/05 01:36:38;;;;;;;;;;;;;;;4.92;59.45;99140.19;4449775;32;19989;-90
2022/04/05 01:39:06;;;;;;;;;;;;;;;4.92;59.45;99145.34;4446701;32;20049;-89
2022/04/05 01:41:31;;;;;;;;;;;;;;;4.90;59.45;99144.53;4437681;32;20012;-88
2022/04/05 01:43:56;;;;;;;;;;;;;;;5.04;59.46;99153.75;4445795;32;20269;-89
2022/04/05 01:46:21;;;;;;;;;;;;;;;5.10;59.47;99145.88;4438571;32;19985;-88
2022/04/05 01:48:47;;;;;;;;;;;;;;;5.13;59.46;99138.94;4444686;32;20039;-88
2022/04/05 01:51:12;;;;;;;;;;;;;;;5.25;59.48;99135.28;4438931;32;20038;-88
2022/04/05 01:53:37;;;;;;;;;;;;;;;5.16;59.47;99138.84;4450119;32;20374;-87
2022/04/05 01:56:02;;;;;;;;;;;;;;;5.11;59.47;99138.09;4438823;32;20025;-88
2022/04/05 01:58:28;;;;;;;;;;;;;;;5.26;59.48;99136.12;4449010;32;20014;-87
2022/04/05 02:00:54;;;;;;;;;;;;;;;5.32;59.48;99134.25;4432473;32;20051;-88
2022/04/05 02:03:19;;;;;;;;;;;;;;;5.37;59.48;99139.31;4424844;32;20257;-87
2022/04/05 02:05:46;;;;;;;;;;;;;;;5.40;59.48;99127.19;4444356;32;27009;-85
2022/04/05 02:08:12;;;;;;;;;;;;;;;5.30;59.47;99123.13;4426082;32;20062;-85
2022/04/05 02:10:37;;;;;;;;;;;;;;;5.33;59.48;99124.78;4425517;32;20001;-87
2022/04/05 02:13:02;;;;;;;;;;;;;;;5.45;59.48;99116.78;4438902;32;34395;-87
2022/04/05 02:15:28;;;;;;;;;;;;;;;5.31;59.47;99118.81;4437056;32;20011;-86
2022/04/05 02:17:53;;;;;;;;;;;;;;;5.37;59.48;99126.41;4446424;32;19997;-87
2022/04/05 02:20:18;;;;;;;;;;;;;;;5.44;59.48;99117.66;4425535;32;20012;-87
2022/04/05 02:22:44;;;;;;;;;;;;;;;5.45;59.48;99114.22;4432291;32;19981;-85
2022/04/05 02:25:09;;;;;;;;;;;;;;;5.46;59.48;99113.31;4439160;32;21337;-86
2022/04/05 02:27:34;;;;;;;;;;;;;;;5.53;59.49;99112.31;4437481;32;19985;-86
2022/04/05 02:30:00;;;;;;;;;;;;;;;5.41;59.48;99123.72;4446506;32;20031;-86
2022/04/05 02:32:25;;;;;;;;;;;;;;;5.47;59.49;99115.03;4437813;32;20007;-86
2022/04/05 02:34:50;;;;;;;;;;;;;;;5.28;59.47;99119.72;4445332;32;20336;-86
2022/04/05 02:37:15;;;;;;;;;;;;;;;5.29;59.47;99105.94;4438213;32;20278;-86
2022/04/05 02:39:41;;;;;;;;;;;;;;;5.46;59.48;99103.00;4439617;32;20026;-86
2022/04/05 02:42:06;;;;;;;;;;;;;;;5.40;59.48;99093.63;4446612;32;28422;-86
2022/04/05 02:44:33;;;;;;;;;;;;;;;5.48;59.49;99096.06;4439351;32;19989;-86
2022/04/05 02:46:58;;;;;;;;;;;;;;;5.54;59.49;99091.63;4446291;32;19986;-88
2022/04/05 02:49:24;;;;;;;;;;;;;;;5.61;59.49;99094.06;4425300;32;20025;-88
2022/04/05 02:51:49;;;;;;;;;;;;;;;5.53;59.49;99087.34;4444785;32;30670;-86
2022/04/05 02:54:14;;;;;;;;;;;;;;;5.62;59.50;99090.59;4437914;32;20024;-88
2022/04/05 02:56:39;;;;;;;;;;;;;;;5.61;59.50;99092.31;4424800;32;20001;-86
2022/04/05 02:59:05;;;;;;;;;;;;;;;5.73;59.50;99088.63;4439254;32;19978;-88
2022/04/05 03:01:30;;;;;;;;;;;;;;;5.85;59.51;99080.56;4449331;32;20272;-87
2022/04/05 03:03:55;;;;;;;;;;;;;;;5.75;59.50;99079.97;4432946;32;20250;-87
2022/04/05 03:06:20;;;;;;;;;;;;;;;6.00;59.52;99076.81;4437675;32;19996;-87
2022/04/05 03:08:46;;;;;;;;;;;;;;;5.86;59.50;99075.38;4444710;32;20110;-88
2022/04/05 03:11:11;;;;;;;;;;;;;;;5.89;59.50;99071.00;4437592;32;20027;-88
2022/04/05 03:13:36;;;;;;;;;;;;;;;5.67;59.49;99063.78;4437668;32;19988;-87
2022/04/05 03:16:01;;;;;;;;;;;;;;;5.68;59.49;99064.63;4445930;32;27143;-88
2022/04/05 03:18:27;;;;;;;;;;;;;;;5.75;59.50;99063.63;4424897;32;20079;-87
2022/04/05 03:20:52;;;;;;;;;;;;;;;5.57;59.49;99064.03;4445363;32;20253;-87
2022/04/05 03:23:20;;;;;;;;;;;;;;;5.54;59.49;99055.47;4438826;32;19969;-87
2022/04/05 03:25:45;;;;;;;;;;;;;;;5.54;59.49;99054.63;4431416;32;19997;-86
2022/04/05 03:28:10;;;;;;;;;;;;;;;5.67;59.49;99057.75;4438862;32;20325;-86
2022/04/05 03:30:35;;;;;;;;;;;;;;;5.55;59.49;99056.31;4438156;32;28970;-86
2022/04/05 03:33:00;;;;;;;;;;;;;;;5.61;59.49;99045.00;4437971;32;30722;-87
2022/04/05 03:35:26;;;;;;;;;;;;;;;5.75;59.50;99056.72;4424353;32;19985;-86
2022/04/05 03:37:52;;;;;;;;;;;;;;;5.59;59.49;99057.09;4424504;32;20340;-86
2022/04/05 03:40:17;;;;;;;;;;;;;;;5.58;59.49;99047.66;4447783;32;20016;-86
2022/04/05 03:42:42;;;;;;;;;;;;;;;5.58;59.49;99047.66;4424789;32;19973;-87
2022/04/05 03:45:07;;;;;;;;;;;;;;;5.63;59.50;99058.72;4440773;32;19989;-89
2022/04/05 03:47:33;;;;;;;;;;;;;;;5.59;59.49;99055.37;4440778;32;20295;-87
2022/04/05 03:49:58;;;;;;;;;;;;;;;5.65;59.50;99052.62;4440782;32;19977;-88
2022/04/05 03:52:23;;;;;;;;;;;;;;;5.75;59.50;99051.56;4437359;32;20008;-88
2022/04/05 03:54:49;;;;;;;;;;;;;;;5.74;59.50;99049.84;4446815;32;20029;-88
2022/04/05 03:57:14;;;;;;;;;;;;;;;5.69;59.50;99051.72;4440670;32;19988;-89
2022/04/05 03:59:39;;;;;;;;;;;;;;;5.60;59.49;99046.72;4439203;32;19981;-91
2022/04/05 04:02:04;;;;;;;;;;;;;;;5.62;59.50;99042.38;4435140;32;20029;-90
2022/04/05 04:04:30;;;;;;;;;;;;;;;5.74;59.50;99039.53;4440660;32;20255;-88
2022/04/05 04:06:55;;;;;;;;;;;;;;;5.76;59.51;99045.50;4447140;32;20004;-87
2022/04/05 04:09:20;;;;;;;;;;;;;;;5.66;59.49;99033.66;4426673;32;19995;-87
2022/04/05 04:11:45;;;;;;;;;;;;;;;5.82;59.50;99045.34;4440523;32;19984;-92
2022/04/05 04:14:11;;;;;;;;;;;;;;;5.78;59.51;99045.47;4436640;32;20321;-92
2022/04/05 04:16:36;;;;;;;;;;;;;;;5.78;59.51;99043.72;4439156;32;20004;-88
2022/04/05 04:19:01;;;;;;;;;;;;;;;5.82;59.50;99050.50;4434303;32;19985;-88
2022/04/05 04:21:26;;;;;;;;;;;;;;;5.88;59.51;99039.19;4426281;32;19973;-89
2022/04/05 04:23:52;;;;;;;;;;;;;;;5.87;59.51;99038.31;4433908;32;20004;-89
2022/04/05 04:26:17;;;;;;;;;;;;;;;5.88;59.51;99036.59;4426717;32;20380;-89
2022/04/05 04:28:42;;;;;;;;;;;;;;;6.06;59.52;99035.31;4440522;32;20003;-88
2022/04/05 04:31:07;;;;;;;;;;;;;;;5.98;59.52;99045.88;4435528;32;20070;-88
2022/04/05 04:33:33;;;;;;;;;;;;;;;6.11;59.52;99036.91;4440575;32;19992;-89
2022/04/05 04:35:58;;;;;;;;;;;;;;;6.12;59.52;99036.00;4440733;32;20235;-89
2022/04/05 04:38:23;;;;;;;;;;;;;;;6.08;59.52;99041.31;4437220;32;20341;-87
2022/04/05 04:40:50;;;;;;;;;;;;;;;6.19;59.52;99035.88;4426489;32;20291;-88
2022/04/05 04:43:15;;;;;;;;;;;;;;;6.29;59.54;99038.19;4449571;32;20427;-89
2022/04/05 04:45:40;;;;;;;;;;;;;;;6.35;59.54;99042.31;4439311;32;19986;-88
2022/04/05 04:48:06;;;;;;;;;;;;;;;6.37;59.54;99038.81;4440590;32;19981;-87
2022/04/05 04:50:31;;;;;;;;;;;;;;;6.42;59.54;99047.31;4440506;32;20015;-89
2022/04/05 04:52:56;;;;;;;;;;;;;;;6.55;59.55;99047.81;4425755;32;34142;-87
2022/04/05 04:55:24;;;;;;;;;;;;;;;6.76;59.56;99051.56;4449943;32;19995;-89
2022/04/05 04:57:49;;;;;;;;;;;;;;;6.78;59.56;99044.59;4446646;32;19992;-88
2022/04/05 05:00:15;;;;;;;;;;;;;;;6.84;59.56;99049.59;4440512;32;19965;-88
2022/04/05 05:02:44;;;;;;;;;;;;;;;6.70;59.55;99051.75;4440415;32;20326;-88
2022/04/05 05:05:09;;;;;;;;;;;;;;;6.75;59.55;99039.53;4435802;32;20006;-88
2022/04/05 05:07:34;;;;;;;;;;;;;;;6.99;59.57;99048.34;4438532;32;31670;-88
2022/04/05 05:09:59;;;;;;;;;;;;;;;6.84;59.56;99036.66;4447743;32;20027;-87
2022/04/05 05:12:25;;;;;;;;;;;;;;;7.00;59.57;99035.34;4438877;32;20005;-88
2022/04/05 05:14:50;;;;;;;;;;;;;;;7.09;59.58;99040.25;4446538;32;20033;-88
2022/04/05 05:17:15;;;;;;;;;;;;;;;7.38;59.59;99033.37;4439132;32;20000;-88
2022/04/05 05:19:41;;;;;;;;;;;;;;;7.24;59.58;99028.59;4438257;32;24459;-88
2022/04/05 05:22:06;;;;;;;;;;;;;;;7.21;59.58;99033.87;4440285;32;20327;-88
2022/04/05 05:24:31;;;;;;;;;;;;;;;7.30;59.59;99028.41;4440331;32;20008;-89
2022/04/05 05:26:57;;;;;;;;;;;;;;;7.32;59.60;99025.78;4440642;32;20298;-91
2022/04/05 05:29:22;;;;;;;;;;;;;;;7.63;59.61;99021.34;4437670;32;20003;-91
2022/04/05 05:31:47;;;;;;;;;;;;;;;7.63;59.61;99030.88;4433808;32;20036;-92
2022/04/05 05:34:18;;;;;;;;;;;;;;;7.76;59.62;99034.75;4439322;32;20000;-91
2022/04/05 05:36:43;;;;;;;;;;;;;;;7.94;59.63;99026.37;4439767;32;20060;-90
2022/04/05 05:39:09;;;;;;;;;;;;;;;7.94;59.62;99033.31;4439262;32;20015;-91
2022/04/05 05:41:34;;;;;;;;;;;;;;;7.97;59.62;99030.63;4439003;32;20033;-91
2022/04/05 05:43:59;;;;;;;;;;;;;;;8.13;59.64;99028.38;4434700;32;20009;-91
2022/04/05 05:46:24;;;;;;;;;;;;;;;8.22;59.64;99021.12;4438861;32;20246;-91
2022/04/05 05:48:50;;;;;;;;;;;;;;;8.19;59.64;99029.00;4433759;32;20058;-91
2022/04/05 05:51:15;;;;;;;;;;;;;;;8.37;59.64;99039.69;4439080;32;20021;-91
2022/04/05 05:53:40;;;;;;;;;;;;;;;8.38;59.65;99037.03;4426338;32;20232;-91
2022/04/05 05:56:05;;;;;;;;;;;;;;;8.47;59.66;99033.28;4448078;32;22248;-91
2022/04/05 05:58:31;;;;;;;;;;;;;;;8.45;59.66;99048.06;4438632;32;28178;-91
2022/04/05 06:00:56;;;;;;;;;;;;;;;8.52;59.66;99055.59;4434255;32;19997;-91
2022/04/05 06:03:21;;;;;;;;;;;;;;;8.56;59.66;99051.13;4439065;32;20050;-92
2022/04/05 06:05:47;;;;;;;;;;;;;;;8.52;59.66;99054.75;4432208;32;20027;-91
2022/04/05 06:08:17;;;;;;;;;;;;;;;8.66;59.67;99047.31;4439103;32;20089;-92
2022/04/05 06:10:42;;;;;;;;;;;;;;;8.77;59.67;99049.53;4439107;32;20342;-91
2022/04/05 06:13:08;;;;;;;;;;;;;;;8.78;59.67;99049.47;4438923;32;20063;-91
2022/04/05 06:15:33;;;;;;;;;;;;;;;9.05;59.69;99057.16;4439140;32;19996;-92
2022/04/05 06:17:59;;;;;;;;;;;;;;;9.26;59.69;99047.72;4434630;32;20038;-89
2022/04/05 06:20:24;;;;;;;;;;;;;;;9.43;59.71;99053.09;4438826;32;20292;-90
2022/04/05 06:22:56;;;;;;;;;;;;;;;9.59;59.72;99055.97;4446386;32;19985;-89
2022/04/05 06:25:23;;;;;;;;;;;;;;;9.63;59.71;99049.72;4412984;32;19981;-91
2022/04/05 06:27:48;;;;;;;;;;;;;;;9.70;59.72;99045.97;4433505;32;20344;-92
2022/04/05 06:30:14;;;;;;;;;;;;;;;9.83;59.73;99047.19;4425897;32;19990;-92
2022/04/05 06:32:40;;;;;;;;;;;;;;;10.16;59.75;99048.41;4438621;32;20255;-92
2022/04/05 06:35:05;;;;;;;;;;;;;;;10.45;59.76;99041.19;4434819;32;19978;-91
2022/04/05 06:37:31;;;;;;;;;;;;;;;10.60;59.77;99032.72;4413100;32;20247;-91
2022/04/05 06:39:56;;;;;;;;;;;;;;;10.61;59.77;99029.19;4433805;32;19993;-92
2022/04/05 06:42:21;;;;;;;;;;;;;;;10.82;59.78;99026.56;4438552;32;20327;-92
2022/04/05 06:44:46;;;;;;;;;;;;;;;10.89;59.79;99033.22;4432737;32;20011;-92
2022/04/05 06:47:12;;;;;;;;;;;;;;;10.91;59.78;99036.59;4438614;32;19969;-92
2022/04/05 06:49:37;;;;;;;;;;;;;;;10.98;59.79;99027.56;4438378;32;20082;-90
2022/04/05 06:52:03;;;;;;;;;;;;;;;11.00;59.80;99031.78;4447187;32;20258;-90
2022/04/05 06:54:28;;;;;;;;;;;;;;;11.18;59.80;99032.72;4425615;32;20016;-90
2022/04/05 06:56:53;;;;;;;;;;;;;;;11.31;59.82;99026.00;4433386;32;20020;-92
2022/04/05 06:59:19;;;;;;;;;;;;;;;11.56;59.82;99030.06;4438213;32;20147;-92
2022/04/05 07:01:44;;;;;;;;;;;;;;;11.68;59.84;99025.13;4431987;32;20285;-92
2022/04/05 07:04:09;;;;;;;;;;;;;;;11.89;59.84;99018.06;4437406;32;32133;-91
2022/04/05 07:06:36;;;;;;;;;;;;;;;12.07;59.86;99020.72;4425197;32;19977;-91
2022/04/05 07:09:01;;;;;;;;;;;;;;;12.15;59.86;99022.00;4446690;32;19989;-92
2022/04/05 07:11:26;;;;;;;;;;;;;;;12.17;59.86;99027.97;4438156;32;20310;-92
2022/04/05 07:13:51;;;;;;;;;;;;;;;12.33;59.87;99032.44;4432457;32;20003;-91
2022/04/05 07:16:17;;;;;;;;;;;;;;;12.52;59.88;99036.62;4425363;32;19965;-90
2022/04/05 07:18:42;;;;;;;;;;;;;;;12.71;59.88;99028.69;4433794;32;19989;-90
2022/04/05 07:21:08;;;;;;;;;;;;;;;12.90;59.90;99028.56;4440030;32;20021;-89
2022/04/05 07:23:36;;;;;;;;;;;;;;;12.79;59.89;99026.53;4440232;32;20053;-90
2022/04/05 07:26:01;;;;;;;;;;;;;;;12.65;59.88;99021.19;4435462;32;19950;-89
2022/04/05 07:28:26;;;;;;;;;;;;;;;12.78;59.89;99019.63;4439528;32;25147;-89
2022/04/05 07:30:51;;;;;;;;;;;;;;;12.97;59.91;99008.19;4434496;32;20322;-89
2022/04/05 07:33:17;;;;;;;;;;;;;;;13.14;59.92;99011.59;4439950;32;19985;-90
2022/04/05 07:35:43;;;;;;;;;;;;;;;13.29;59.92;99009.13;4433451;32;19954;-89
2022/04/05 07:38:08;;;;;;;;;;;;;;;13.40;59.92;99004.97;4439859;32;19989;-90
2022/04/05 07:40:49;;;;;;;;;;;;;;;13.46;59.93;98999.38;4439593;32;20321;-89
2022/04/05 07:43:18;;;;;;;;;;;;;;;13.33;59.92;99002.78;4435482;32;20409;-90
2022/04/05 07:45:44;;;;;;;;;;;;;;;13.40;59.92;98993.66;4411599;32;19992;-89
2022/04/05 07:48:09;;;;;;;;;;;;;;;13.63;59.94;98995.84;4443366;32;20031;-89
2022/04/05 07:50:35;;;;;;;;;;;;;;;13.75;59.94;99005.63;4413562;32;19994;-89
2022/04/05 07:53:00;;;;;;;;;;;;;;;13.87;59.96;99006.69;4435120;32;20035;-89
2022/04/05 07:55:25;;;;;;;;;;;;;;;13.96;59.96;99007.91;4439533;32;19997;-90
2022/04/05 07:57:50;;;;;;;;;;;;;;;14.01;59.96;99003.28;4447052;32;20019;-89
2022/04/05 08:00:16;;;;;;;;;;;;;;;14.11;59.97;99007.03;4438954;32;28885;-89
2022/04/05 08:02:41;;;;;;;;;;;;;;;14.07;59.96;99013.38;4439593;32;20018;-89
2022/04/05 08:05:06;;;;;;;;;;;;;;;14.21;59.97;99007.38;4439140;32;26230;-90
2022/04/05 08:07:32;;;;;;;;;;;;;;;14.43;59.98;98997.31;4426733;32;19997;-89
2022/04/05 08:09:58;;;;;;;;;;;;;;;14.64;60.00;99003.03;4434959;32;20147;-90
2022/04/05 08:12:23;;;;;;;;;;;;;;;14.83;60.00;98998.38;4426785;32;19969;-89
2022/04/05 08:14:48;;;;;;;;;;;;;;;14.98;60.02;98988.75;4434017;32;20393;-90
2022/04/05 08:17:14;;;;;;;;;;;;;;;15.25;60.03;98988.78;4426792;32;20012;-89
2022/04/05 08:19:39;;;;;;;;;;;;;;;15.26;60.03;98993.94;4439064;32;20002;-89
2022/04/05 08:22:04;;;;;;;;;;;;;;;15.04;60.02;98996.22;4435078;32;21729;-89
2022/04/05 08:24:29;;;;;;;;;;;;;;;15.08;60.01;98999.47;4439328;32;20003;-90
2022/04/05 08:26:55;;;;;;;;;;;;;;;15.37;60.04;98998.47;4434271;32;20041;-88
2022/04/05 08:29:20;;;;;;;;;;;;;;;15.55;60.05;98999.09;4438764;32;20375;-90
2022/04/05 08:31:45;;;;;;;;;;;;;;;15.80;60.06;98995.75;4433523;32;20015;-90
2022/04/05 08:34:10;;;;;;;;;;;;;;;15.86;60.06;99004.09;4439344;32;19970;-90
2022/04/05 08:36:36;;;;;;;;;;;;;;;15.98;60.06;98994.56;4439221;32;20004;-90
2022/04/05 08:39:01;;;;;;;;;;;;;;;15.69;60.05;98991.22;4435205;32;20026;-89
2022/04/05 08:41:27;;;;;;;;;;;;;;;15.43;60.04;98998.12;4439064;32;19996;-90
2022/04/05 08:43:52;;;;;;;;;;;;;;;15.51;60.04;99003.69;4434054;32;19993;-90
2022/04/05 08:46:17;;;;;;;;;;;;;;;15.61;60.04;98996.97;4426571;32;20308;-90
2022/04/05 08:48:42;;;;;;;;;;;;;;;15.74;60.06;98989.13;4433118;32;19985;-90
2022/04/05 08:51:08;;;;;;;;;;;;;;;16.02;60.08;98993.41;4439161;32;20013;-90
2022/04/05 08:53:33;;;;;;;;;;;;;;;16.21;60.08;98993.88;4439386;32;19977;-90
2022/04/05 08:55:59;;;;;;;;;;;;;;;16.41;60.09;98989.06;4434826;32;20001;-91
2022/04/05 08:58:24;;;;;;;;;;;;;;;16.39;60.08;98990.94;4413811;32;19986;-89
2022/04/05 09:00:50;;;;;;;;;;;;;;;16.48;60.09;98985.06;4433786;32;19981;-89
2022/04/05 09:03:16;;;;;;;;;;;;;;;16.44;60.09;98986.22;4413804;32;19981;-89
2022/04/05 09:05:44;;;;;;;;;;;;;;;16.48;60.10;98978.03;4432687;32;20001;-90
2022/04/05 09:08:16;;;;;;;;;;;;;;;16.54;60.10;98988.09;4413842;32;19997;-90
2022/04/05 09:10:41;;;;;;;;;;;;;;;16.53;60.10;98996.94;4440302;32;19992;-90
2022/04/05 09:13:08;;;;;;;;;;;;;;;16.54;60.10;98984.63;4448688;32;19974;-90
2022/04/05 09:15:34;;;;;;;;;;;;;;;16.41;60.09;98987.28;4426415;32;19994;-90
2022/04/05 09:18:00;;;;;;;;;;;;;;;16.48;60.10;98996.41;4447806;32;20009;-89
2022/04/05 09:20:26;;;;;;;;;;;;;;;16.30;60.08;99000.28;4426239;32;20013;-90
2022/04/05 09:22:54;;;;;;;;;;;;;;;16.17;60.08;98996.81;4433690;32;19982;-90
2022/04/05 09:25:19;;;;;;;;;;;;;;;16.07;60.07;98996.56;4440406;32;20047;-90
2022/04/05 09:27:47;;;;;;;;;;;;;;;16.11;60.08;98994.59;4433034;32;19993;-91
2022/04/05 09:30:13;;;;;;;;;;;;;;;16.14;60.08;98991.75;4440325;32;20037;-89
2022/04/05 09:32:44;;;;;;;;;;;;;;;16.14;60.08;98994.37;4438788;32;19974;-89
2022/04/05 09:35:09;;;;;;;;;;;;;;;16.04;60.07;98995.94;4434946;32;19998;-90
2022/04/05 09:37:38;;;;;;;;;;;;;;;16.10;60.08;98992.91;4438925;32;19981;-90
2022/04/05 09:40:19;;;;;;;;;;;;;;;15.90;60.06;98987.19;4425279;32;20331;-89
2022/04/05 09:43:04;;;;;;;;;;;;;;;15.75;60.06;99005.72;4445761;32;19981;-90
2022/04/05 09:45:42;;;;;;;;;;;;;;;15.70;60.05;99005.19;4452040;32;19990;-90
2022/04/05 09:48:08;;;;;;;;;;;;;;;15.70;60.05;99002.56;4448597;32;20660;-91
2022/04/05 09:50:43;;;;;;;;;;;;;;;15.64;60.06;99009.03;4439104;32;20000;-90
2022/04/05 09:53:08;;;;;;;;;;;;;;;15.78;60.07;99002.87;4435421;32;19969;-89
2022/04/05 09:55:33;;;;;;;;;;;;;;;15.54;60.04;98998.25;4440118;32;20004;-91
2022/04/05 09:57:58;;;;;;;;;;;;;;;15.57;60.05;99000.69;4434523;32;19985;-90
2022/04/05 10:00:23;;;;;;;;;;;;;;;15.65;60.05;99003.69;4438903;32;20252;-90
2022/04/05 10:03:02;;;;;;;;;;;;;;;15.65;60.06;99003.69;4439755;32;19988;-89
2022/04/05 10:05:30;;;;;;;;;;;;;;;15.83;60.06;99004.25;4437286;32;20004;-90
2022/04/05 10:07:56;;;;;;;;;;;;;;;15.50;60.05;98999.41;4447062;32;19989;-90
2022/04/05 10:10:21;;;;;;;;;;;;;;;15.73;60.06;99002.34;4426104;32;20003;-90
2022/04/05 10:12:47;;;;;;;;;;;;;;;15.72;60.06;99003.28;4432623;32;19981;-90
2022/04/05 10:15:12;;;;;;;;;;;;;;;15.73;60.06;98991.84;4413116;32;19997;-90
2022/04/05 10:17:37;;;;;;;;;;;;;;;15.86;60.07;98993.59;4451534;32;20339;-90
2022/04/05 10:20:03;;;;;;;;;;;;;;;15.90;60.06;98996.84;4434609;32;19973;-89
2022/04/05 10:22:28;;;;;;;;;;;;;;;15.77;60.06;98990.72;4413208;32;20247;-90
2022/04/05 10:24:54;;;;;;;;;;;;;;;15.89;60.07;98985.50;4433252;32;19985;-89
2022/04/05 10:27:19;;;;;;;;;;;;;;;16.04;60.08;98988.88;4426057;32;19996;-90
2022/04/05 10:29:45;;;;;;;;;;;;;;;16.20;60.08;98986.94;4432605;32;19977;-90
2022/04/05 10:32:10;;;;;;;;;;;;;;;16.41;60.10;98981.19;4438655;32;20344;-90
2022/04/05 10:34:46;;;;;;;;;;;;;;;16.42;60.09;98982.88;4425510;32;20001;-90
2022/04/05 10:37:17;;;;;;;;;;;;;;;16.68;60.12;98984.56;4435339;32;19989;-90
2022/04/05 10:39:43;;;;;;;;;;;;;;;16.72;60.12;98972.06;4407205;32;19977;-90
2022/04/05 10:42:08;;;;;;;;;;;;;;;17.12;60.13;98972.72;4434769;32;20074;-89
2022/04/05 10:44:34;;;;;;;;;;;;;;;17.12;60.13;98972.72;4425427;32;20027;-88
2022/04/05 10:47:01;;;;;;;;;;;;;;;17.29;60.15;98967.13;4433859;32;20042;-89
2022/04/05 10:49:37;;;;;;;;;;;;;;;17.39;60.15;98976.00;4413045;32;20027;-90
2022/04/05 10:52:06;;;;;;;;;;;;;;;17.49;60.16;98981.44;4433676;32;19978;-89
2022/04/05 10:54:41;;;;;;;;;;;;;;;17.55;60.16;98973.13;4425887;32;20038;-89
2022/04/05 10:57:26;;;;;;;;;;;;;;;17.41;60.15;98973.28;4434701;32;20318;-89
2022/04/05 10:59:53;;;;;;;;;;;;;;;17.56;60.16;98964.28;4408076;32;20382;-91
2022/04/05 11:02:35;;;;;;;;;;;;;;;17.98;60.18;98968.19;4435955;32;19969;-90
2022/04/05 11:05:18;;;;;;;;;;;;;;;18.04;60.19;98967.72;4446516;32;20045;-89
2022/04/05 11:07:59;;;;;;;;;;;;;;;18.14;60.18;98967.84;4425264;32;20002;-89
2022/04/05 11:10:36;;;;;;;;;;;;;;;18.45;60.21;98963.72;4439191;32;20031;-89
2022/04/05 11:13:05;;;;;;;;;;;;;;;18.18;60.19;98961.41;4446652;32;19989;-89
2022/04/05 11:15:40;;;;;;;;;;;;;;;18.13;60.19;98960.06;4425041;32;19990;-90
2022/04/05 11:18:05;;;;;;;;;;;;;;;17.86;60.18;98971.72;4439296;32;19985;-91
2022/04/05 11:20:31;;;;;;;;;;;;;;;17.57;60.16;98973.84;4436620;32;19995;-89
2022/04/05 11:23:00;;;;;;;;;;;;;;;17.37;60.15;98977.91;4433228;32;19998;-90
2022/04/05 11:25:26;;;;;;;;;;;;;;;17.19;60.14;98971.34;4425256;32;19988;-90
2022/04/05 11:27:53;;;;;;;;;;;;;;;16.73;60.11;98974.56;4445597;32;20288;-89
2022/04/05 11:30:27;;;;;;;;;;;;;;;16.41;60.10;98975.94;4437975;32;20001;-91
2022/04/05 11:33:15;;;;;;;;;;;;;;;16.37;60.10;98987.59;4439268;32;20004;-88
2022/04/05 11:35:44;;;;;;;;;;;;;;;16.18;60.09;98985.34;4422534;32;20009;-89
2022/04/05 11:38:19;;;;;;;;;;;;;;;16.27;60.10;98988.19;4447375;32;20687;-89
2022/04/05 11:40:44;;;;;;;;;;;;;;;16.19;60.09;98993.13;4432809;32;20046;-90
2022/04/05 11:43:17;;;;;;;;;;;;;;;15.89;60.07;98996.00;4447145;32;19993;-90
2022/04/05 11:45:43;;;;;;;;;;;;;;;15.89;60.07;98996.00;4422160;32;19993;-89
2022/04/05 11:48:13;;;;;;;;;;;;;;;15.60;60.05;98994.41;4441123;32;19990;-90
2022/04/05 11:50:38;;;;;;;;;;;;;;;15.30;60.04;98997.19;4424773;32;20001;-92
2022/04/05 11:53:23;;;;;;;;;;;;;;;15.30;60.04;98991.94;4445952;32;24223;-90
2022/04/05 11:56:03;;;;;;;;;;;;;;;15.16;60.04;98995.47;4419201;32;19993;-89
2022/04/05 11:58:30;;;;;;;;;;;;;;;15.29;60.04;99006.00;4438807;32;20045;-89
2022/04/05 12:00:56;;;;;;;;;;;;;;;15.21;60.03;99000.41;4445705;32;19996;-90
2022/04/05 12:03:21;;;;;;;;;;;;;;;15.09;60.03;98994.13;4437489;32;20579;-89
2022/04/05 12:05:46;;;;;;;;;;;;;;;15.22;60.03;99009.97;4440335;32;20919;-92
2022/04/05 12:08:12;;;;;;;;;;;;;;;15.49;60.05;99007.38;4436528;32;19986;-91
2022/04/05 12:10:37;;;;;;;;;;;;;;;15.60;60.05;99003.13;4414080;32;19981;-89
2022/04/05 12:13:02;;;;;;;;;;;;;;;15.80;60.07;98993.97;4441171;32;19984;-92
2022/04/05 12:15:28;;;;;;;;;;;;;;;16.00;60.09;98982.16;4451503;32;20021;-90
2022/04/05 12:18:12;;;;;;;;;;;;;;;15.91;60.07;98977.53;4434649;32;19994;-91
2022/04/05 12:20:37;;;;;;;;;;;;;;;15.99;60.07;98985.75;4452300;32;19978;-89
2022/04/05 12:23:02;;;;;;;;;;;;;;;15.76;60.08;98984.63;4440805;32;19958;-89
2022/04/05 12:25:27;;;;;;;;;;;;;;;15.93;60.08;98979.13;4438435;32;20295;-90
2022/04/05 12:27:53;;;;;;;;;;;;;;;15.91;60.07;98978.38;4447510;32;19986;-89
2022/04/05 12:30:26;;;;;;;;;;;;;;;15.80;60.07;98985.25;4452503;32;20019;-89
2022/04/05 12:32:51;;;;;;;;;;;;;;;15.82;60.07;98986.00;4434307;32;19973;-89
2022/04/05 12:35:17;;;;;;;;;;;;;;;15.86;60.08;98983.09;4439326;32;20041;-90
2022/04/05 12:37:44;;;;;;;;;;;;;;;15.63;60.07;98968.00;4446303;32;19996;-89
2022/04/05 12:40:22;;;;;;;;;;;;;;;15.46;60.04;98981.34;4439537;32;19977;-89
2022/04/05 12:42:48;;;;;;;;;;;;;;;15.62;60.06;98974.22;4408679;32;20033;-90
2022/04/05 12:45:13;;;;;;;;;;;;;;;15.33;60.04;98974.25;4449270;32;20035;-90
2022/04/05 12:47:43;;;;;;;;;;;;;;;15.20;60.04;98973.34;4439550;32;20058;-90
2022/04/05 12:50:08;;;;;;;;;;;;;;;15.28;60.04;98968.44;4435757;32;20357;-89